sensor_id;sensor_type;location;lat;lon;timestamp;temperature;humidity
85562;DHT22;76005;50.882;3.882;2024-01-27T00:01:40;4.60;68.30
85562;DHT22;76005;50.882;3.882;2024-01-27T00:04:05;4.70;68.10
85562;DHT22;76005;50.882;3.882;2024-01-27T00:06:31;4.70;67.70
85562;DHT22;76005;50.882;3.882;2024-01-27T00:08:57;4.70;67.30
85562;DHT22;76005;50.882;3.882;2024-01-27T00:11:22;4.70;67.60
85562;DHT22;76005;50.882;3.882;2024-01-27T00:13:51;4.60;68.20
85562;DHT22;76005;50.882;3.882;2024-01-27T00:16:16;4.70;68.90
85562;DHT22;76005;50.882;3.882;2024-01-27T00:18:42;4.70;68.60
85562;DHT22;76005;50.882;3.882;2024-01-27T00:21:08;4.70;68.30
85562;DHT22;76005;50.882;3.882;2024-01-27T00:23:34;4.70;68.50
85562;DHT22;76005;50.882;3.882;2024-01-27T00:26:00;4.60;68.00
85562;DHT22;76005;50.882;3.882;2024-01-27T00:28:26;4.60;68.30
85562;DHT22;76005;50.882;3.882;2024-01-27T00:30:52;4.60;69.10
85562;DHT22;76005;50.882;3.882;2024-01-27T00:33:17;4.60;69.50
85562;DHT22;76005;50.882;3.882;2024-01-27T00:35:43;4.50;68.50
85562;DHT22;76005;50.882;3.882;2024-01-27T00:38:09;4.60;68.80
85562;DHT22;76005;50.882;3.882;2024-01-27T00:40:35;4.60;68.20
85562;DHT22;76005;50.882;3.882;2024-01-27T00:43:04;4.60;68.00
85562;DHT22;76005;50.882;3.882;2024-01-27T00:45:30;4.50;69.10
85562;DHT22;76005;50.882;3.882;2024-01-27T00:47:58;4.50;68.40
85562;DHT22;76005;50.882;3.882;2024-01-27T00:50:24;4.50;68.10
85562;DHT22;76005;50.882;3.882;2024-01-27T00:52:50;4.50;68.20
85562;DHT22;76005;50.882;3.882;2024-01-27T00:55:16;4.50;68.40
85562;DHT22;76005;50.882;3.882;2024-01-27T00:57:42;4.40;67.90
85562;DHT22;76005;50.882;3.882;2024-01-27T01:00:09;4.40;68.20
85562;DHT22;76005;50.882;3.882;2024-01-27T01:02:36;4.40;68.30
85562;DHT22;76005;50.882;3.882;2024-01-27T01:05:03;4.40;68.10
85562;DHT22;76005;50.882;3.882;2024-01-27T01:07:30;4.30;68.30
85562;DHT22;76005;50.882;3.882;2024-01-27T01:09:56;4.20;68.30
85562;DHT22;76005;50.882;3.882;2024-01-27T01:12:21;4.20;68.60
85562;DHT22;76005;50.882;3.882;2024-01-27T01:14:47;4.10;68.70
85562;DHT22;76005;50.882;3.882;2024-01-27T01:17:13;4.10;68.20
85562;DHT22;76005;50.882;3.882;2024-01-27T01:19:39;4.00;68.40
85562;DHT22;76005;50.882;3.882;2024-01-27T01:22:05;4.00;68.80
85562;DHT22;76005;50.882;3.882;2024-01-27T01:24:32;3.80;70.70
85562;DHT22;76005;50.882;3.882;2024-01-27T01:26:58;3.80;70.90
85562;DHT22;76005;50.882;3.882;2024-01-27T01:29:25;3.80;70.30
85562;DHT22;76005;50.882;3.882;2024-01-27T01:31:51;3.90;70.20
85562;DHT22;76005;50.882;3.882;2024-01-27T01:34:17;3.70;71.50
85562;DHT22;76005;50.882;3.882;2024-01-27T01:36:43;3.60;72.10
85562;DHT22;76005;50.882;3.882;2024-01-27T01:39:10;3.60;71.90
85562;DHT22;76005;50.882;3.882;2024-01-27T01:41:36;3.70;71.50
85562;DHT22;76005;50.882;3.882;2024-01-27T01:44:02;3.70;72.50
85562;DHT22;76005;50.882;3.882;2024-01-27T01:46:28;3.80;71.90
85562;DHT22;76005;50.882;3.882;2024-01-27T01:48:53;3.80;70.60
85562;DHT22;76005;50.882;3.882;2024-01-27T01:51:19;3.80;70.20
85562;DHT22;76005;50.882;3.882;2024-01-27T01:53:48;3.80;70.20
85562;DHT22;76005;50.882;3.882;2024-01-27T01:56:14;3.80;69.80
85562;DHT22;76005;50.882;3.882;2024-01-27T01:58:41;3.90;69.80
85562;DHT22;76005;50.882;3.882;2024-01-27T02:01:06;3.70;71.10
85562;DHT22;76005;50.882;3.882;2024-01-27T02:03:32;3.60;71.20
85562;DHT22;76005;50.882;3.882;2024-01-27T02:05:58;3.60;70.90
85562;DHT22;76005;50.882;3.882;2024-01-27T02:08:23;3.60;71.60
85562;DHT22;76005;50.882;3.882;2024-01-27T02:10:49;3.60;71.60
85562;DHT22;76005;50.882;3.882;2024-01-27T02:13:18;3.60;71.10
85562;DHT22;76005;50.882;3.882;2024-01-27T02:15:45;3.60;71.80
85562;DHT22;76005;50.882;3.882;2024-01-27T02:18:11;3.60;71.90
85562;DHT22;76005;50.882;3.882;2024-01-27T02:20:36;3.40;72.60
85562;DHT22;76005;50.882;3.882;2024-01-27T02:23:06;3.40;72.60
85562;DHT22;76005;50.882;3.882;2024-01-27T02:25:35;3.50;71.50
85562;DHT22;76005;50.882;3.882;2024-01-27T02:28:01;3.50;71.60
85562;DHT22;76005;50.882;3.882;2024-01-27T02:30:30;3.50;71.60
85562;DHT22;76005;50.882;3.882;2024-01-27T02:32:57;3.50;71.10
85562;DHT22;76005;50.882;3.882;2024-01-27T02:35:23;3.50;70.30
85562;DHT22;76005;50.882;3.882;2024-01-27T02:37:49;3.50;71.00
85562;DHT22;76005;50.882;3.882;2024-01-27T02:40:15;3.50;70.20
85562;DHT22;76005;50.882;3.882;2024-01-27T02:42:41;3.40;70.70
85562;DHT22;76005;50.882;3.882;2024-01-27T02:45:10;3.20;72.20
85562;DHT22;76005;50.882;3.882;2024-01-27T02:47:37;3.10;72.00
85562;DHT22;76005;50.882;3.882;2024-01-27T02:50:02;3.00;72.70
85562;DHT22;76005;50.882;3.882;2024-01-27T02:52:29;2.90;73.60
85562;DHT22;76005;50.882;3.882;2024-01-27T02:54:55;2.80;74.50
85562;DHT22;76005;50.882;3.882;2024-01-27T02:57:21;2.80;75.00
85562;DHT22;76005;50.882;3.882;2024-01-27T02:59:47;2.80;74.30
85562;DHT22;76005;50.882;3.882;2024-01-27T03:02:12;2.80;74.70
85562;DHT22;76005;50.882;3.882;2024-01-27T03:04:38;2.70;75.40
85562;DHT22;76005;50.882;3.882;2024-01-27T03:07:04;2.80;74.30
85562;DHT22;76005;50.882;3.882;2024-01-27T03:09:30;2.60;75.30
85562;DHT22;76005;50.882;3.882;2024-01-27T03:11:56;2.50;75.60
85562;DHT22;76005;50.882;3.882;2024-01-27T03:14:22;2.50;75.30
85562;DHT22;76005;50.882;3.882;2024-01-27T03:16:47;2.60;75.20
85562;DHT22;76005;50.882;3.882;2024-01-27T03:19:13;2.80;74.10
85562;DHT22;76005;50.882;3.882;2024-01-27T03:21:39;2.70;74.20
85562;DHT22;76005;50.882;3.882;2024-01-27T03:24:05;2.70;74.60
85562;DHT22;76005;50.882;3.882;2024-01-27T03:26:30;2.60;75.10
85562;DHT22;76005;50.882;3.882;2024-01-27T03:28:56;2.40;75.90
85562;DHT22;76005;50.882;3.882;2024-01-27T03:31:22;2.30;76.50
85562;DHT22;76005;50.882;3.882;2024-01-27T03:33:47;2.30;76.50
85562;DHT22;76005;50.882;3.882;2024-01-27T03:36:13;2.50;75.20
85562;DHT22;76005;50.882;3.882;2024-01-27T03:38:40;2.40;76.30
85562;DHT22;76005;50.882;3.882;2024-01-27T03:41:06;2.30;76.00
85562;DHT22;76005;50.882;3.882;2024-01-27T03:43:33;2.20;76.70
85562;DHT22;76005;50.882;3.882;2024-01-27T03:45:59;2.00;77.00
85562;DHT22;76005;50.882;3.882;2024-01-27T03:48:25;2.10;76.40
85562;DHT22;76005;50.882;3.882;2024-01-27T03:50:51;2.30;75.70
85562;DHT22;76005;50.882;3.882;2024-01-27T03:53:16;2.30;75.80
85562;DHT22;76005;50.882;3.882;2024-01-27T03:55:42;2.40;75.00
85562;DHT22;76005;50.882;3.882;2024-01-27T03:58:08;2.50;75.10
85562;DHT22;76005;50.882;3.882;2024-01-27T04:00:34;2.50;75.30
85562;DHT22;76005;50.882;3.882;2024-01-27T04:02:59;2.60;75.00
85562;DHT22;76005;50.882;3.882;2024-01-27T04:05:26;2.70;74.60
85562;DHT22;76005;50.882;3.882;2024-01-27T04:07:51;2.70;74.10
85562;DHT22;76005;50.882;3.882;2024-01-27T04:10:18;2.80;73.60
85562;DHT22;76005;50.882;3.882;2024-01-27T04:12:44;2.90;73.30
85562;DHT22;76005;50.882;3.882;2024-01-27T04:15:12;2.70;74.90
85562;DHT22;76005;50.882;3.882;2024-01-27T04:17:39;2.60;74.50
85562;DHT22;76005;50.882;3.882;2024-01-27T04:20:06;2.50;75.00
85562;DHT22;76005;50.882;3.882;2024-01-27T04:22:33;2.60;74.90
85562;DHT22;76005;50.882;3.882;2024-01-27T04:24:59;2.80;73.50
85562;DHT22;76005;50.882;3.882;2024-01-27T04:27:26;2.70;73.70
85562;DHT22;76005;50.882;3.882;2024-01-27T04:29:52;2.50;74.90
85562;DHT22;76005;50.882;3.882;2024-01-27T04:32:18;2.20;77.30
85562;DHT22;76005;50.882;3.882;2024-01-27T04:34:44;2.20;77.00
85562;DHT22;76005;50.882;3.882;2024-01-27T04:37:09;2.30;75.90
85562;DHT22;76005;50.882;3.882;2024-01-27T04:39:35;2.40;75.70
85562;DHT22;76005;50.882;3.882;2024-01-27T04:42:01;2.50;74.90
85562;DHT22;76005;50.882;3.882;2024-01-27T04:44:27;2.60;74.20
85562;DHT22;76005;50.882;3.882;2024-01-27T04:46:52;2.60;73.80
85562;DHT22;76005;50.882;3.882;2024-01-27T04:49:18;2.50;75.30
85562;DHT22;76005;50.882;3.882;2024-01-27T04:51:44;2.40;76.30
85562;DHT22;76005;50.882;3.882;2024-01-27T04:54:10;2.40;75.60
85562;DHT22;76005;50.882;3.882;2024-01-27T04:56:35;2.40;75.50
85562;DHT22;76005;50.882;3.882;2024-01-27T04:59:02;2.30;76.50
85562;DHT22;76005;50.882;3.882;2024-01-27T05:01:28;2.40;76.00
85562;DHT22;76005;50.882;3.882;2024-01-27T05:03:54;2.50;75.00
85562;DHT22;76005;50.882;3.882;2024-01-27T05:06:19;2.60;74.00
85562;DHT22;76005;50.882;3.882;2024-01-27T05:08:45;2.40;74.90
85562;DHT22;76005;50.882;3.882;2024-01-27T05:11:11;2.20;76.90
85562;DHT22;76005;50.882;3.882;2024-01-27T05:13:37;2.10;77.60
85562;DHT22;76005;50.882;3.882;2024-01-27T05:16:05;2.30;76.90
85562;DHT22;76005;50.882;3.882;2024-01-27T05:18:31;2.40;75.40
85562;DHT22;76005;50.882;3.882;2024-01-27T05:20:57;2.50;74.60
85562;DHT22;76005;50.882;3.882;2024-01-27T05:23:22;2.50;75.30
85562;DHT22;76005;50.882;3.882;2024-01-27T05:25:49;2.50;74.50
85562;DHT22;76005;50.882;3.882;2024-01-27T05:28:14;2.60;73.20
85562;DHT22;76005;50.882;3.882;2024-01-27T05:30:40;2.50;73.00
85562;DHT22;76005;50.882;3.882;2024-01-27T05:33:06;2.50;74.60
85562;DHT22;76005;50.882;3.882;2024-01-27T05:35:31;2.50;75.30
85562;DHT22;76005;50.882;3.882;2024-01-27T05:37:57;2.40;75.70
85562;DHT22;76005;50.882;3.882;2024-01-27T05:40:23;2.30;75.20
85562;DHT22;76005;50.882;3.882;2024-01-27T05:42:48;2.40;74.90
85562;DHT22;76005;50.882;3.882;2024-01-27T05:45:15;2.40;75.00
85562;DHT22;76005;50.882;3.882;2024-01-27T05:47:40;2.30;75.80
85562;DHT22;76005;50.882;3.882;2024-01-27T05:50:07;2.30;76.00
85562;DHT22;76005;50.882;3.882;2024-01-27T05:52:37;2.00;77.40
85562;DHT22;76005;50.882;3.882;2024-01-27T05:55:03;1.70;78.70
85562;DHT22;76005;50.882;3.882;2024-01-27T05:57:32;1.70;78.60
85562;DHT22;76005;50.882;3.882;2024-01-27T05:59:57;1.90;77.60
85562;DHT22;76005;50.882;3.882;2024-01-27T06:02:23;2.00;77.20
85562;DHT22;76005;50.882;3.882;2024-01-27T06:04:49;2.20;75.30
85562;DHT22;76005;50.882;3.882;2024-01-27T06:07:15;2.30;75.20
85562;DHT22;76005;50.882;3.882;2024-01-27T06:09:40;2.30;75.70
85562;DHT22;76005;50.882;3.882;2024-01-27T06:12:06;2.30;75.20
85562;DHT22;76005;50.882;3.882;2024-01-27T06:14:32;2.20;76.70
85562;DHT22;76005;50.882;3.882;2024-01-27T06:16:58;2.00;77.10
85562;DHT22;76005;50.882;3.882;2024-01-27T06:19:24;1.80;79.10
85562;DHT22;76005;50.882;3.882;2024-01-27T06:21:49;1.60;79.60
85562;DHT22;76005;50.882;3.882;2024-01-27T06:24:15;1.80;78.70
85562;DHT22;76005;50.882;3.882;2024-01-27T06:26:41;2.00;77.10
85562;DHT22;76005;50.882;3.882;2024-01-27T06:29:06;2.10;76.80
85562;DHT22;76005;50.882;3.882;2024-01-27T06:31:32;2.00;76.70
85562;DHT22;76005;50.882;3.882;2024-01-27T06:33:58;1.70;78.20
85562;DHT22;76005;50.882;3.882;2024-01-27T06:36:23;1.40;79.70
85562;DHT22;76005;50.882;3.882;2024-01-27T06:38:51;1.30;80.30
85562;DHT22;76005;50.882;3.882;2024-01-27T06:41:17;1.30;80.70
85562;DHT22;76005;50.882;3.882;2024-01-27T06:43:43;1.40;80.00
85562;DHT22;76005;50.882;3.882;2024-01-27T06:46:08;1.50;79.70
85562;DHT22;76005;50.882;3.882;2024-01-27T06:48:34;1.40;79.80
85562;DHT22;76005;50.882;3.882;2024-01-27T06:51:00;1.30;80.60
85562;DHT22;76005;50.882;3.882;2024-01-27T06:53:26;1.30;80.50
85562;DHT22;76005;50.882;3.882;2024-01-27T06:55:51;1.40;80.50
85562;DHT22;76005;50.882;3.882;2024-01-27T06:58:17;1.50;80.00
85562;DHT22;76005;50.882;3.882;2024-01-27T07:00:42;1.70;79.40
85562;DHT22;76005;50.882;3.882;2024-01-27T07:03:10;1.80;79.10
85562;DHT22;76005;50.882;3.882;2024-01-27T07:05:36;1.80;78.00
85562;DHT22;76005;50.882;3.882;2024-01-27T07:08:08;1.60;80.00
85562;DHT22;76005;50.882;3.882;2024-01-27T07:10:35;1.60;80.00
85562;DHT22;76005;50.882;3.882;2024-01-27T07:13:01;1.70;79.40
85562;DHT22;76005;50.882;3.882;2024-01-27T07:15:26;1.80;79.60
85562;DHT22;76005;50.882;3.882;2024-01-27T07:17:53;1.90;80.20
85562;DHT22;76005;50.882;3.882;2024-01-27T07:20:19;2.00;78.40
85562;DHT22;76005;50.882;3.882;2024-01-27T07:22:47;2.00;79.10
85562;DHT22;76005;50.882;3.882;2024-01-27T07:25:13;2.00;79.90
85562;DHT22;76005;50.882;3.882;2024-01-27T07:27:39;2.00;80.00
85562;DHT22;76005;50.882;3.882;2024-01-27T07:30:05;2.00;80.00
85562;DHT22;76005;50.882;3.882;2024-01-27T07:32:32;2.10;80.00
85562;DHT22;76005;50.882;3.882;2024-01-27T07:34:57;2.00;79.70
85562;DHT22;76005;50.882;3.882;2024-01-27T07:37:23;1.80;80.30
85562;DHT22;76005;50.882;3.882;2024-01-27T07:39:49;1.70;81.20
85562;DHT22;76005;50.882;3.882;2024-01-27T07:42:15;1.60;81.70
85562;DHT22;76005;50.882;3.882;2024-01-27T07:44:41;1.60;82.20
85562;DHT22;76005;50.882;3.882;2024-01-27T07:47:08;1.70;81.90
85562;DHT22;76005;50.882;3.882;2024-01-27T07:49:36;1.80;81.70
85562;DHT22;76005;50.882;3.882;2024-01-27T07:52:02;1.80;81.70
85562;DHT22;76005;50.882;3.882;2024-01-27T07:54:27;1.90;81.30
85562;DHT22;76005;50.882;3.882;2024-01-27T07:56:54;1.90;81.30
85562;DHT22;76005;50.882;3.882;2024-01-27T07:59:20;2.00;81.30
85562;DHT22;76005;50.882;3.882;2024-01-27T08:01:46;2.00;80.90
85562;DHT22;76005;50.882;3.882;2024-01-27T08:04:11;2.10;81.30
85562;DHT22;76005;50.882;3.882;2024-01-27T08:06:48;2.10;81.30
85562;DHT22;76005;50.882;3.882;2024-01-27T08:09:14;2.20;80.70
85562;DHT22;76005;50.882;3.882;2024-01-27T08:11:40;2.40;80.30
85562;DHT22;76005;50.882;3.882;2024-01-27T08:14:06;2.50;80.20
85562;DHT22;76005;50.882;3.882;2024-01-27T08:16:31;2.60;79.60
85562;DHT22;76005;50.882;3.882;2024-01-27T08:18:57;2.70;79.20
85562;DHT22;76005;50.882;3.882;2024-01-27T08:21:23;2.80;78.90
85562;DHT22;76005;50.882;3.882;2024-01-27T08:23:48;2.90;78.90
85562;DHT22;76005;50.882;3.882;2024-01-27T08:26:14;3.00;78.80
85562;DHT22;76005;50.882;3.882;2024-01-27T08:28:40;3.10;78.50
85562;DHT22;76005;50.882;3.882;2024-01-27T08:31:06;3.00;78.70
85562;DHT22;76005;50.882;3.882;2024-01-27T08:33:32;3.10;78.30
85562;DHT22;76005;50.882;3.882;2024-01-27T08:35:57;3.20;78.30
85562;DHT22;76005;50.882;3.882;2024-01-27T08:38:23;3.20;78.30
85562;DHT22;76005;50.882;3.882;2024-01-27T08:40:49;3.30;78.40
85562;DHT22;76005;50.882;3.882;2024-01-27T08:43:14;3.40;78.60
85562;DHT22;76005;50.882;3.882;2024-01-27T08:45:40;3.50;78.00
85562;DHT22;76005;50.882;3.882;2024-01-27T08:48:06;3.70;77.60
85562;DHT22;76005;50.882;3.882;2024-01-27T08:50:32;3.80;77.80
85562;DHT22;76005;50.882;3.882;2024-01-27T08:52:58;3.80;77.80
85562;DHT22;76005;50.882;3.882;2024-01-27T08:55:23;3.90;77.50
85562;DHT22;76005;50.882;3.882;2024-01-27T08:57:53;4.10;76.90
85562;DHT22;76005;50.882;3.882;2024-01-27T09:00:18;4.10;77.10
85562;DHT22;76005;50.882;3.882;2024-01-27T09:02:44;4.20;77.20
85562;DHT22;76005;50.882;3.882;2024-01-27T09:05:10;4.30;76.80
85562;DHT22;76005;50.882;3.882;2024-01-27T09:07:36;4.50;76.00
85562;DHT22;76005;50.882;3.882;2024-01-27T09:10:02;4.60;75.70
85562;DHT22;76005;50.882;3.882;2024-01-27T09:12:28;4.70;75.40
85562;DHT22;76005;50.882;3.882;2024-01-27T09:14:54;4.80;76.10
85562;DHT22;76005;50.882;3.882;2024-01-27T09:17:20;5.00;75.10
85562;DHT22;76005;50.882;3.882;2024-01-27T09:19:46;5.40;74.30
85562;DHT22;76005;50.882;3.882;2024-01-27T09:22:12;5.70;73.10
85562;DHT22;76005;50.882;3.882;2024-01-27T09:24:37;5.80;72.30
85562;DHT22;76005;50.882;3.882;2024-01-27T09:27:03;5.80;73.00
85562;DHT22;76005;50.882;3.882;2024-01-27T09:29:29;6.10;72.00
85562;DHT22;76005;50.882;3.882;2024-01-27T09:31:55;6.20;72.30
85562;DHT22;76005;50.882;3.882;2024-01-27T09:34:21;6.30;71.30
85562;DHT22;76005;50.882;3.882;2024-01-27T09:36:46;6.50;71.50
85562;DHT22;76005;50.882;3.882;2024-01-27T09:39:12;6.80;70.40
85562;DHT22;76005;50.882;3.882;2024-01-27T09:41:38;7.00;70.20
85562;DHT22;76005;50.882;3.882;2024-01-27T09:44:04;7.50;69.50
85562;DHT22;76005;50.882;3.882;2024-01-27T09:46:31;8.00;67.90
85562;DHT22;76005;50.882;3.882;2024-01-27T09:48:57;8.70;67.10
85562;DHT22;76005;50.882;3.882;2024-01-27T09:51:25;9.60;64.90
85562;DHT22;76005;50.882;3.882;2024-01-27T09:53:51;10.10;63.80
85562;DHT22;76005;50.882;3.882;2024-01-27T09:56:17;10.70;61.20
85562;DHT22;76005;50.882;3.882;2024-01-27T09:58:44;10.70;60.80
85562;DHT22;76005;50.882;3.882;2024-01-27T10:01:11;12.10;60.00
85562;DHT22;76005;50.882;3.882;2024-01-27T10:03:40;12.60;56.80
85562;DHT22;76005;50.882;3.882;2024-01-27T10:06:08;11.80;57.90
85562;DHT22;76005;50.882;3.882;2024-01-27T10:08:34;11.80;58.00
85562;DHT22;76005;50.882;3.882;2024-01-27T10:11:07;11.60;58.00
85562;DHT22;76005;50.882;3.882;2024-01-27T10:13:33;11.10;58.20
85562;DHT22;76005;50.882;3.882;2024-01-27T10:16:08;11.10;60.40
85562;DHT22;76005;50.882;3.882;2024-01-27T10:18:34;12.00;58.00
85562;DHT22;76005;50.882;3.882;2024-01-27T10:21:00;13.40;55.90
85562;DHT22;76005;50.882;3.882;2024-01-27T10:23:39;14.70;53.10
85562;DHT22;76005;50.882;3.882;2024-01-27T10:26:05;16.40;49.60
85562;DHT22;76005;50.882;3.882;2024-01-27T10:28:30;17.50;46.70
85562;DHT22;76005;50.882;3.882;2024-01-27T10:31:11;17.80;45.30
85562;DHT22;76005;50.882;3.882;2024-01-27T10:33:37;18.10;44.70
85562;DHT22;76005;50.882;3.882;2024-01-27T10:36:03;18.30;44.80
85562;DHT22;76005;50.882;3.882;2024-01-27T10:38:38;18.10;44.10
85562;DHT22;76005;50.882;3.882;2024-01-27T10:41:08;18.10;43.80
85562;DHT22;76005;50.882;3.882;2024-01-27T10:43:36;18.70;43.60
85562;DHT22;76005;50.882;3.882;2024-01-27T10:46:06;18.70;42.00
85562;DHT22;76005;50.882;3.882;2024-01-27T10:48:37;18.90;43.20
85562;DHT22;76005;50.882;3.882;2024-01-27T10:51:13;18.00;42.90
85562;DHT22;76005;50.882;3.882;2024-01-27T10:53:44;18.10;42.50
85562;DHT22;76005;50.882;3.882;2024-01-27T10:56:13;18.00;42.60
85562;DHT22;76005;50.882;3.882;2024-01-27T10:58:40;19.00;42.70
85562;DHT22;76005;50.882;3.882;2024-01-27T11:01:11;17.00;44.60
85562;DHT22;76005;50.882;3.882;2024-01-27T11:03:40;15.10;47.00
85562;DHT22;76005;50.882;3.882;2024-01-27T11:06:06;14.80;47.60
85562;DHT22;76005;50.882;3.882;2024-01-27T11:08:33;15.70;47.30
85562;DHT22;76005;50.882;3.882;2024-01-27T11:11:00;15.80;46.50
85562;DHT22;76005;50.882;3.882;2024-01-27T11:13:28;16.20;46.20
85562;DHT22;76005;50.882;3.882;2024-01-27T11:15:56;16.00;46.20
85562;DHT22;76005;50.882;3.882;2024-01-27T11:18:22;15.10;46.70
85562;DHT22;76005;50.882;3.882;2024-01-27T11:20:47;14.00;48.70
85562;DHT22;76005;50.882;3.882;2024-01-27T11:23:13;13.40;50.50
85562;DHT22;76005;50.882;3.882;2024-01-27T11:25:40;13.00;51.20
85562;DHT22;76005;50.882;3.882;2024-01-27T11:28:16;13.10;51.70
85562;DHT22;76005;50.882;3.882;2024-01-27T11:30:46;13.00;51.40
85562;DHT22;76005;50.882;3.882;2024-01-27T11:33:13;12.50;52.30
85562;DHT22;76005;50.882;3.882;2024-01-27T11:35:39;12.20;53.90
85562;DHT22;76005;50.882;3.882;2024-01-27T11:38:04;12.30;53.80
85562;DHT22;76005;50.882;3.882;2024-01-27T11:40:30;12.00;54.10
85562;DHT22;76005;50.882;3.882;2024-01-27T11:42:58;12.20;54.10
85562;DHT22;76005;50.882;3.882;2024-01-27T11:45:24;11.80;54.40
85562;DHT22;76005;50.882;3.882;2024-01-27T11:47:50;11.90;55.00
85562;DHT22;76005;50.882;3.882;2024-01-27T11:50:19;11.70;54.90
85562;DHT22;76005;50.882;3.882;2024-01-27T11:52:45;11.60;55.60
85562;DHT22;76005;50.882;3.882;2024-01-27T11:55:11;11.50;55.90
85562;DHT22;76005;50.882;3.882;2024-01-27T11:57:36;11.60;56.10
85562;DHT22;76005;50.882;3.882;2024-01-27T12:00:03;11.40;55.80
85562;DHT22;76005;50.882;3.882;2024-01-27T12:02:29;11.20;56.40
85562;DHT22;76005;50.882;3.882;2024-01-27T12:04:55;11.30;56.50
85562;DHT22;76005;50.882;3.882;2024-01-27T12:07:21;11.30;55.90
85562;DHT22;76005;50.882;3.882;2024-01-27T12:09:51;11.10;56.00
85562;DHT22;76005;50.882;3.882;2024-01-27T12:12:16;11.00;56.20
85562;DHT22;76005;50.882;3.882;2024-01-27T12:14:47;11.10;56.10
85562;DHT22;76005;50.882;3.882;2024-01-27T12:17:13;11.10;54.30
85562;DHT22;76005;50.882;3.882;2024-01-27T12:19:48;11.20;54.60
85562;DHT22;76005;50.882;3.882;2024-01-27T12:22:27;11.40;54.40
85562;DHT22;76005;50.882;3.882;2024-01-27T12:25:07;11.30;53.80
85562;DHT22;76005;50.882;3.882;2024-01-27T12:27:33;11.20;54.30
85562;DHT22;76005;50.882;3.882;2024-01-27T12:30:01;11.10;55.60
85562;DHT22;76005;50.882;3.882;2024-01-27T12:32:27;11.20;55.60
85562;DHT22;76005;50.882;3.882;2024-01-27T12:34:53;11.00;56.20
85562;DHT22;76005;50.882;3.882;2024-01-27T12:37:21;10.90;54.80
85562;DHT22;76005;50.882;3.882;2024-01-27T12:39:47;10.70;54.80
85562;DHT22;76005;50.882;3.882;2024-01-27T12:42:17;10.70;56.20
85562;DHT22;76005;50.882;3.882;2024-01-27T12:44:43;10.50;56.00
85562;DHT22;76005;50.882;3.882;2024-01-27T12:47:11;10.50;55.90
85562;DHT22;76005;50.882;3.882;2024-01-27T12:49:39;10.30;56.20
85562;DHT22;76005;50.882;3.882;2024-01-27T12:52:05;10.50;56.40
85562;DHT22;76005;50.882;3.882;2024-01-27T12:54:31;10.60;56.30
85562;DHT22;76005;50.882;3.882;2024-01-27T12:56:57;10.50;54.80
85562;DHT22;76005;50.882;3.882;2024-01-27T12:59:23;10.40;56.60
85562;DHT22;76005;50.882;3.882;2024-01-27T13:01:49;10.40;56.10
85562;DHT22;76005;50.882;3.882;2024-01-27T13:04:15;10.40;56.60
85562;DHT22;76005;50.882;3.882;2024-01-27T13:06:41;10.30;55.90
85562;DHT22;76005;50.882;3.882;2024-01-27T13:09:08;10.30;55.40
85562;DHT22;76005;50.882;3.882;2024-01-27T13:11:37;10.10;56.70
85562;DHT22;76005;50.882;3.882;2024-01-27T13:14:04;10.30;56.90
85562;DHT22;76005;50.882;3.882;2024-01-27T13:16:30;10.40;55.70
85562;DHT22;76005;50.882;3.882;2024-01-27T13:18:56;10.20;56.40
85562;DHT22;76005;50.882;3.882;2024-01-27T13:21:22;10.20;54.60
85562;DHT22;76005;50.882;3.882;2024-01-27T13:23:48;10.30;54.80
85562;DHT22;76005;50.882;3.882;2024-01-27T13:26:13;10.20;53.80
85562;DHT22;76005;50.882;3.882;2024-01-27T13:28:39;10.10;54.80
85562;DHT22;76005;50.882;3.882;2024-01-27T13:31:05;10.30;55.30
85562;DHT22;76005;50.882;3.882;2024-01-27T13:33:32;10.30;54.60
85562;DHT22;76005;50.882;3.882;2024-01-27T13:36:00;10.20;54.80
85562;DHT22;76005;50.882;3.882;2024-01-27T13:38:26;10.40;55.50
85562;DHT22;76005;50.882;3.882;2024-01-27T13:40:52;10.40;54.90
85562;DHT22;76005;50.882;3.882;2024-01-27T13:43:18;10.30;53.40
85562;DHT22;76005;50.882;3.882;2024-01-27T13:45:43;9.90;54.70
85562;DHT22;76005;50.882;3.882;2024-01-27T13:48:10;9.90;54.30
85562;DHT22;76005;50.882;3.882;2024-01-27T13:50:36;9.80;54.70
85562;DHT22;76005;50.882;3.882;2024-01-27T13:53:01;9.90;55.00
85562;DHT22;76005;50.882;3.882;2024-01-27T13:55:28;10.00;55.20
85562;DHT22;76005;50.882;3.882;2024-01-27T13:57:54;10.00;55.40
85562;DHT22;76005;50.882;3.882;2024-01-27T14:00:20;9.90;54.50
85562;DHT22;76005;50.882;3.882;2024-01-27T14:02:47;9.80;54.50
85562;DHT22;76005;50.882;3.882;2024-01-27T14:05:12;9.70;54.50
85562;DHT22;76005;50.882;3.882;2024-01-27T14:07:38;9.70;55.20
85562;DHT22;76005;50.882;3.882;2024-01-27T14:10:04;9.80;55.10
85562;DHT22;76005;50.882;3.882;2024-01-27T14:12:30;9.70;54.40
85562;DHT22;76005;50.882;3.882;2024-01-27T14:15:04;9.40;54.70
85562;DHT22;76005;50.882;3.882;2024-01-27T14:17:33;9.40;55.50
85562;DHT22;76005;50.882;3.882;2024-01-27T14:20:00;9.40;53.80
85562;DHT22;76005;50.882;3.882;2024-01-27T14:22:26;9.30;54.20
85562;DHT22;76005;50.882;3.882;2024-01-27T14:24:52;9.30;54.10
85562;DHT22;76005;50.882;3.882;2024-01-27T14:27:18;9.40;54.50
85562;DHT22;76005;50.882;3.882;2024-01-27T14:29:52;9.40;53.60
85562;DHT22;76005;50.882;3.882;2024-01-27T14:32:17;9.40;53.80
85562;DHT22;76005;50.882;3.882;2024-01-27T14:34:43;9.50;54.00
85562;DHT22;76005;50.882;3.882;2024-01-27T14:37:09;9.30;52.60
85562;DHT22;76005;50.882;3.882;2024-01-27T14:39:34;9.20;53.90
85562;DHT22;76005;50.882;3.882;2024-01-27T14:42:01;9.30;54.20
85562;DHT22;76005;50.882;3.882;2024-01-27T14:44:30;9.40;54.00
85562;DHT22;76005;50.882;3.882;2024-01-27T14:46:55;9.30;54.10
85562;DHT22;76005;50.882;3.882;2024-01-27T14:49:21;9.30;53.50
85562;DHT22;76005;50.882;3.882;2024-01-27T14:51:48;9.10;55.00
85562;DHT22;76005;50.882;3.882;2024-01-27T14:54:13;9.00;54.70
85562;DHT22;76005;50.882;3.882;2024-01-27T14:56:39;9.00;54.90
85562;DHT22;76005;50.882;3.882;2024-01-27T14:59:05;8.90;55.40
85562;DHT22;76005;50.882;3.882;2024-01-27T15:01:33;8.90;55.90
85562;DHT22;76005;50.882;3.882;2024-01-27T15:03:59;9.00;56.00
85562;DHT22;76005;50.882;3.882;2024-01-27T15:06:26;9.00;55.90
85562;DHT22;76005;50.882;3.882;2024-01-27T15:08:53;9.10;55.80
85562;DHT22;76005;50.882;3.882;2024-01-27T15:11:19;9.10;55.70
85562;DHT22;76005;50.882;3.882;2024-01-27T15:13:44;9.10;55.80
85562;DHT22;76005;50.882;3.882;2024-01-27T15:16:12;9.00;56.90
85562;DHT22;76005;50.882;3.882;2024-01-27T15:18:37;9.00;56.20
85562;DHT22;76005;50.882;3.882;2024-01-27T15:21:06;8.90;57.20
85562;DHT22;76005;50.882;3.882;2024-01-27T15:23:33;9.10;57.90
85562;DHT22;76005;50.882;3.882;2024-01-27T15:26:00;9.20;57.80
85562;DHT22;76005;50.882;3.882;2024-01-27T15:28:27;9.40;57.50
85562;DHT22;76005;50.882;3.882;2024-01-27T15:30:52;9.10;56.30
85562;DHT22;76005;50.882;3.882;2024-01-27T15:33:18;9.10;56.50
85562;DHT22;76005;50.882;3.882;2024-01-27T15:35:44;9.20;56.80
85562;DHT22;76005;50.882;3.882;2024-01-27T15:38:09;9.30;56.60